Montevideo, MN

2:13 AM CDT on September 21, 2017 (GMT -0500)
Montevideo-Chippewa County

Weather History for KMVE - August, 2014

Change the Weather History Date:

Saturday, August 23, 2014

  Actual Average Record
Temperature  
Mean Temperature 72 °F -  
Max Temperature 77 °F 80 °F 96 °F (1968)
Min Temperature 68 °F 58 °F 42 °F (1987)
Cooling Degree Days 8    
Growing Degree Days 22 (Base 50)    
Moisture  
Dew Point 70 °F    
Average Humidity 96    
Maximum Humidity 100    
Minimum Humidity 78    
Precipitation  
Precipitation 0.01 in - - ()
Sea Level Pressure  
Sea Level Pressure 29.93 in    
Wind  
Wind Speed 8 mph (SE)    
Max Wind Speed 17 mph    
Max Gust Speed 23 mph    
Visibility 8 miles    
Events Rain    
Averages and records for this station are not official NWS values.
T = Trace of Precipitation, MM = Missing Value Source: NWS Daily Summary

Daily Weather History Graph

Daily Weather History Graph

Search for Another Location

Airport or City:

Trip Planner

Search our weather history database for the weather conditions in past years. The results will help you decide how hot, cold, wet, or windy it might be!

Date:

Astronomy

Aug. 23, 2014 Rise Set
Actual Time 6:34 AM CDT 8:15 PM CDT
Civil Twilight 6:03 AM CDT 8:46 PM CDT
Nautical Twilight 5:25 AM CDT 9:24 PM CDT
Astronomical Twilight 4:44 AM CDT 10:05 PM CDT
Moon 4:49 AM CDT (8/23) 7:01 PM CDT (8/23)
Length of Visible Light 14h 43m
Length of Day
13h 41m
Waning Crescent, 3% of the Moon is Illuminated
Aug 23
Waning Crescent
Aug 25
New
Sep 2
First Quarter
Sep 8
Full
Sep 15
Last Quarter

Hourly Weather History & Observations

Time (CDT) Temp. Dew Point Humidity Pressure Visibility Wind Dir Wind Speed Gust Speed Precip Events Conditions
12:14 AM 71.6 °F 71.6 °F 100% 30.02 in 10.0 mi East 4.6 mph - N/A   Clear
12:34 AM 71.6 °F 69.8 °F 94% 30.01 in 10.0 mi East 4.6 mph - N/A   Clear
12:54 AM 71.6 °F 69.8 °F 94% 30.01 in 10.0 mi East 5.8 mph - N/A   Clear
1:14 AM 71.6 °F 69.8 °F 94% 30.00 in 10.0 mi East 5.8 mph - N/A   Clear
1:34 AM 71.6 °F 71.6 °F 100% 30.00 in 10.0 mi ESE 4.6 mph - N/A   Clear
1:54 AM 71.6 °F 69.8 °F 94% 30.00 in 10.0 mi ESE 3.5 mph - N/A   Clear
2:14 AM 69.8 °F 69.8 °F 100% 30.00 in 10.0 mi Calm Calm - N/A   Scattered Clouds
2:34 AM 71.6 °F 71.6 °F 100% 29.99 in 7.0 mi Calm Calm - N/A   Overcast
2:53 AM 71.6 °F 71.6 °F 100% 29.99 in 7.0 mi SSE 5.8 mph - N/A   Overcast
3:14 AM 69.8 °F 69.8 °F 100% 29.99 in 7.0 mi SE 5.8 mph - N/A   Overcast
3:34 AM 69.8 °F 69.8 °F 100% 29.99 in 7.0 mi SE 4.6 mph - N/A   Mostly Cloudy
4:14 AM 69.8 °F 69.8 °F 100% 30.00 in 7.0 mi SSE 5.8 mph - N/A   Overcast
4:34 AM 69.8 °F 69.8 °F 100% 30.00 in 7.0 mi SSE 8.1 mph - N/A   Overcast
4:53 AM 69.8 °F 69.8 °F 100% 30.00 in 10.0 mi SE 4.6 mph - N/A   Scattered Clouds
5:14 AM 69.8 °F 69.8 °F 100% 30.00 in 7.0 mi SE 4.6 mph - N/A   Scattered Clouds
5:34 AM 69.8 °F 69.8 °F 100% 30.01 in 7.0 mi SSE 5.8 mph - N/A   Scattered Clouds
6:14 AM 68.0 °F 68.0 °F 100% 30.01 in 7.0 mi SE 5.8 mph - N/A   Scattered Clouds
6:34 AM 68.0 °F 68.0 °F 100% 30.01 in 7.0 mi SE 3.5 mph - N/A   Scattered Clouds
6:54 AM 68.0 °F 68.0 °F 100% 30.01 in 7.0 mi SE 4.6 mph - N/A   Scattered Clouds
7:14 AM 68.0 °F 68.0 °F 100% 30.00 in 5.0 mi SE 3.5 mph - N/A   Scattered Clouds
7:34 AM 68.0 °F 68.0 °F 100% 29.98 in 5.0 mi SE 6.9 mph - N/A Rain Light Rain
7:54 AM 68.0 °F 68.0 °F 100% 29.95 in 4.0 mi ESE 9.2 mph - N/A   Scattered Clouds
8:14 AM 68.0 °F 68.0 °F 100% 29.95 in 5.0 mi ESE 9.2 mph - N/A   Mostly Cloudy
8:34 AM 68.0 °F 68.0 °F 100% 29.95 in 7.0 mi ESE 8.1 mph - N/A   Light Drizzle
8:54 AM 68.0 °F 68.0 °F 100% 29.94 in 5.0 mi East 8.1 mph - N/A   Overcast
9:14 AM 68.0 °F 68.0 °F 100% 29.94 in 7.0 mi ESE 10.4 mph - N/A   Mostly Cloudy
9:34 AM 68.0 °F 68.0 °F 100% 29.94 in 7.0 mi ESE 10.4 mph - N/A   Mostly Cloudy
9:54 AM 69.8 °F 69.8 °F 100% 29.96 in 10.0 mi SE 11.5 mph - N/A   Overcast
10:14 AM 69.8 °F 69.8 °F 100% 29.96 in 7.0 mi SE 10.4 mph - N/A   Overcast
10:34 AM 69.8 °F 69.8 °F 100% 29.96 in 10.0 mi ESE 6.9 mph - N/A Rain Light Rain
10:53 AM 69.8 °F 68.0 °F 94% 29.95 in 7.0 mi SE 11.5 mph - N/A   Light Drizzle
11:14 AM 69.8 °F 69.8 °F 100% 29.95 in 5.0 mi SE 10.4 mph - N/A Rain Light Rain
11:34 AM 69.8 °F 69.8 °F 100% 29.96 in 5.0 mi SE 8.1 mph - N/A Rain Light Rain
11:54 AM 69.8 °F 69.8 °F 100% 29.94 in 5.0 mi ESE 9.2 mph - N/A   Overcast
12:14 PM 69.8 °F 69.8 °F 100% 29.93 in 5.0 mi ESE 10.4 mph - N/A Rain Light Rain
12:34 PM 69.8 °F 69.8 °F 100% 29.93 in 5.0 mi ESE 10.4 mph - N/A Rain Light Rain
12:54 PM 71.6 °F 71.6 °F 100% 29.94 in 7.0 mi ESE 9.2 mph - 0.01 in   Overcast
1:14 PM 71.6 °F 69.8 °F 94% 29.94 in 7.0 mi SE 10.4 mph - N/A   Overcast
1:34 PM 71.6 °F 69.8 °F 94% 29.94 in 7.0 mi SE 11.5 mph - N/A   Overcast
1:54 PM 75.2 °F 71.6 °F 89% 29.93 in 10.0 mi SE 11.5 mph 17.3 mph N/A   Overcast
2:13 PM 75.2 °F 69.8 °F 83% 29.93 in 10.0 mi ESE 12.7 mph - N/A   Overcast
2:34 PM 77.0 °F 69.8 °F 78% 29.92 in 10.0 mi SE 15.0 mph - N/A   Mostly Cloudy
2:54 PM 77.0 °F 69.8 °F 78% 29.91 in 10.0 mi SE 12.7 mph 20.7 mph N/A   Overcast
3:13 PM 75.2 °F 69.8 °F 83% 29.91 in 10.0 mi ESE 12.7 mph - N/A   Overcast
3:34 PM 75.2 °F 69.8 °F 83% 29.90 in 10.0 mi SE 13.8 mph - N/A   Overcast
3:54 PM 73.4 °F 69.8 °F 88% 29.90 in 10.0 mi SE 11.5 mph - N/A   Overcast
4:14 PM 73.4 °F 69.8 °F 88% 29.89 in 10.0 mi SE 16.1 mph 21.9 mph N/A   Overcast
4:34 PM 71.6 °F 69.8 °F 94% 29.88 in 7.0 mi ESE 15.0 mph 21.9 mph N/A   Overcast
4:54 PM 71.6 °F 71.6 °F 100% 29.89 in 4.0 mi SE 10.4 mph - N/A Rain Light Rain
5:14 PM 73.4 °F 71.6 °F 94% 29.88 in 5.0 mi ESE 11.5 mph 16.1 mph N/A   Light Drizzle
5:34 PM 73.4 °F 71.6 °F 94% 29.87 in 5.0 mi SE 13.8 mph 18.4 mph N/A   Mostly Cloudy
5:54 PM 73.4 °F 69.8 °F 88% 29.87 in 5.0 mi SE 13.8 mph - N/A   Scattered Clouds
6:14 PM 75.2 °F 71.6 °F 89% 29.86 in 7.0 mi SE 13.8 mph - N/A   Scattered Clouds
6:34 PM 75.2 °F 71.6 °F 89% 29.86 in 10.0 mi SE 15.0 mph - N/A   Scattered Clouds
6:54 PM 75.2 °F 69.8 °F 83% 29.84 in 10.0 mi SE 15.0 mph - N/A   Scattered Clouds
7:14 PM 75.2 °F 69.8 °F 83% 29.84 in 10.0 mi SE 15.0 mph 23.0 mph N/A   Clear
7:34 PM 73.4 °F 69.8 °F 88% 29.83 in 10.0 mi SE 16.1 mph 19.6 mph N/A   Clear
7:54 PM 73.4 °F 69.8 °F 88% 29.84 in 10.0 mi SE 11.5 mph - N/A   Clear
8:14 PM 73.4 °F 69.8 °F 88% 29.84 in 10.0 mi SE 9.2 mph - N/A   Clear
8:34 PM 71.6 °F 71.6 °F 100% 29.84 in 10.0 mi SE 9.2 mph - N/A   Scattered Clouds
8:54 PM 71.6 °F 71.6 °F 100% 29.85 in 10.0 mi SE 10.4 mph - N/A   Mostly Cloudy
9:13 PM 71.6 °F 71.6 °F 100% 29.85 in 10.0 mi SE 11.5 mph - N/A   Mostly Cloudy
9:34 PM 71.6 °F 71.6 °F 100% 29.84 in 10.0 mi SE 15.0 mph - N/A   Overcast
9:54 PM 71.6 °F 71.6 °F 100% 29.84 in 10.0 mi SE 15.0 mph - N/A   Overcast
10:13 PM 71.6 °F 71.6 °F 100% 29.85 in 10.0 mi SSE 12.7 mph - N/A   Overcast
10:34 PM 71.6 °F 71.6 °F 100% 29.83 in 7.0 mi SSE 15.0 mph - N/A   Mostly Cloudy
10:54 PM 71.6 °F 71.6 °F 100% 29.83 in 7.0 mi SSE 15.0 mph - N/A   Scattered Clouds
11:14 PM 71.6 °F 71.6 °F 100% 29.81 in 7.0 mi SSE 15.0 mph 19.6 mph N/A   Scattered Clouds
11:33 PM 71.6 °F 71.6 °F 100% 29.81 in 7.0 mi SSE 17.3 mph 21.9 mph N/A   Scattered Clouds
11:54 PM 71.6 °F 71.6 °F 100% 29.81 in 7.0 mi SSE 13.8 mph 23.0 mph N/A   Scattered Clouds